sensor_id;sensor_type;location;lat;lon;timestamp;noise_LAeq;noise_LA_min;noise_LA_max;noise_LA01;noise_LA95
71628;Laerm;59477;52.374;9.916;2023-05-07T00:00:21;48.35;37.13;57.09;;
71628;Laerm;59477;52.374;9.916;2023-05-07T00:02:22;40.90;35.26;52.95;;
71628;Laerm;59477;52.374;9.916;2023-05-07T00:04:23;38.84;34.51;47.85;;
71628;Laerm;59477;52.374;9.916;2023-05-07T00:06:23;40.46;36.33;47.13;;
71628;Laerm;59477;52.374;9.916;2023-05-07T00:08:34;44.29;38.26;52.78;;
71628;Laerm;59477;52.374;9.916;2023-05-07T00:10:34;40.75;34.77;59.67;;
71628;Laerm;59477;52.374;9.916;2023-05-07T00:12:35;39.43;33.97;48.09;;
71628;Laerm;59477;52.374;9.916;2023-05-07T00:14:36;43.42;35.15;57.87;;
71628;Laerm;59477;52.374;9.916;2023-05-07T00:16:54;44.39;35.13;61.35;;
71628;Laerm;59477;52.374;9.916;2023-05-07T00:18:59;42.52;37.42;55.82;;
71628;Laerm;59477;52.374;9.916;2023-05-07T00:21:00;39.63;34.74;55.84;;
71628;Laerm;59477;52.374;9.916;2023-05-07T00:23:00;38.79;34.21;46.84;;
71628;Laerm;59477;52.374;9.916;2023-05-07T00:25:01;40.43;35.32;51.33;;
71628;Laerm;59477;52.374;9.916;2023-05-07T00:27:02;40.40;33.66;48.65;;
71628;Laerm;59477;52.374;9.916;2023-05-07T00:29:20;41.24;35.21;49.06;;
71628;Laerm;59477;52.374;9.916;2023-05-07T00:31:21;41.31;37.03;47.94;;
71628;Laerm;59477;52.374;9.916;2023-05-07T00:33:21;41.67;35.72;54.38;;
71628;Laerm;59477;52.374;9.916;2023-05-07T00:35:41;42.51;36.69;53.62;;
71628;Laerm;59477;52.374;9.916;2023-05-07T00:37:42;43.24;36.94;50.85;;
71628;Laerm;59477;52.374;9.916;2023-05-07T00:39:42;44.33;38.08;62.12;;
71628;Laerm;59477;52.374;9.916;2023-05-07T00:41:43;41.18;34.58;50.33;;
71628;Laerm;59477;52.374;9.916;2023-05-07T00:43:43;42.28;37.32;50.28;;
71628;Laerm;59477;52.374;9.916;2023-05-07T00:45:44;39.46;35.18;47.25;;
71628;Laerm;59477;52.374;9.916;2023-05-07T00:47:45;38.06;34.16;44.29;;
71628;Laerm;59477;52.374;9.916;2023-05-07T00:49:46;38.79;33.39;47.21;;
71628;Laerm;59477;52.374;9.916;2023-05-07T00:51:46;40.34;35.92;46.75;;
71628;Laerm;59477;52.374;9.916;2023-05-07T00:53:47;39.47;35.32;49.90;;
71628;Laerm;59477;52.374;9.916;2023-05-07T00:55:48;38.51;35.24;46.13;;
71628;Laerm;59477;52.374;9.916;2023-05-07T00:58:07;44.25;35.42;58.54;;
71628;Laerm;59477;52.374;9.916;2023-05-07T01:00:08;44.77;36.25;58.12;;
71628;Laerm;59477;52.374;9.916;2023-05-07T01:02:12;50.76;38.79;64.72;;
71628;Laerm;59477;52.374;9.916;2023-05-07T01:04:13;41.37;35.58;48.63;;
71628;Laerm;59477;52.374;9.916;2023-05-07T01:06:13;41.71;35.35;56.70;;
71628;Laerm;59477;52.374;9.916;2023-05-07T01:08:35;44.82;34.41;57.04;;
71628;Laerm;59477;52.374;9.916;2023-05-07T01:10:54;48.50;34.65;59.26;;
71628;Laerm;59477;52.374;9.916;2023-05-07T01:12:55;48.14;37.13;58.32;;
71628;Laerm;59477;52.374;9.916;2023-05-07T01:14:57;46.93;37.19;63.23;;
71628;Laerm;59477;52.374;9.916;2023-05-07T01:17:06;46.94;36.47;70.60;;
71628;Laerm;59477;52.374;9.916;2023-05-07T01:19:08;39.87;35.46;53.66;;
71628;Laerm;59477;52.374;9.916;2023-05-07T01:21:08;46.30;35.02;58.53;;
71628;Laerm;59477;52.374;9.916;2023-05-07T01:23:29;42.10;35.16;56.93;;
71628;Laerm;59477;52.374;9.916;2023-05-07T01:25:30;38.57;34.70;46.53;;
71628;Laerm;59477;52.374;9.916;2023-05-07T01:27:31;47.84;34.78;59.35;;
71628;Laerm;59477;52.374;9.916;2023-05-07T01:29:33;43.94;37.05;52.37;;
71628;Laerm;59477;52.374;9.916;2023-05-07T01:31:52;38.85;34.27;47.97;;
71628;Laerm;59477;52.374;9.916;2023-05-07T01:34:12;39.18;34.33;48.55;;
71628;Laerm;59477;52.374;9.916;2023-05-07T01:36:13;37.27;33.77;53.24;;
71628;Laerm;59477;52.374;9.916;2023-05-07T01:38:32;40.31;34.87;53.59;;
71628;Laerm;59477;52.374;9.916;2023-05-07T01:40:33;47.15;37.10;56.45;;
71628;Laerm;59477;52.374;9.916;2023-05-07T01:42:53;40.70;36.20;57.24;;
71628;Laerm;59477;52.374;9.916;2023-05-07T01:44:54;45.90;35.03;56.05;;
71628;Laerm;59477;52.374;9.916;2023-05-07T01:47:14;45.41;34.99;56.01;;
71628;Laerm;59477;52.374;9.916;2023-05-07T01:49:15;38.56;34.48;45.93;;
71628;Laerm;59477;52.374;9.916;2023-05-07T01:51:34;39.04;34.84;50.40;;
71628;Laerm;59477;52.374;9.916;2023-05-07T01:53:53;39.08;35.00;51.31;;
71628;Laerm;59477;52.374;9.916;2023-05-07T01:55:54;44.13;34.96;52.07;;
71628;Laerm;59477;52.374;9.916;2023-05-07T01:57:54;52.18;35.21;66.46;;
71628;Laerm;59477;52.374;9.916;2023-05-07T01:59:55;40.83;36.73;45.45;;
71628;Laerm;59477;52.374;9.916;2023-05-07T02:02:14;45.32;36.71;66.34;;
71628;Laerm;59477;52.374;9.916;2023-05-07T02:04:15;44.67;36.97;65.02;;
71628;Laerm;59477;52.374;9.916;2023-05-07T02:06:16;43.98;35.97;64.92;;
71628;Laerm;59477;52.374;9.916;2023-05-07T02:08:16;44.70;36.16;57.14;;
71628;Laerm;59477;52.374;9.916;2023-05-07T02:10:37;43.68;36.15;60.80;;
71628;Laerm;59477;52.374;9.916;2023-05-07T02:12:38;40.99;35.88;49.30;;
71628;Laerm;59477;52.374;9.916;2023-05-07T02:14:39;46.54;39.48;56.30;;
71628;Laerm;59477;52.374;9.916;2023-05-07T02:16:39;46.88;37.47;55.81;;
71628;Laerm;59477;52.374;9.916;2023-05-07T02:18:40;42.05;35.98;56.47;;
71628;Laerm;59477;52.374;9.916;2023-05-07T02:20:40;44.22;36.26;64.07;;
71628;Laerm;59477;52.374;9.916;2023-05-07T02:22:41;43.71;37.80;54.28;;
71628;Laerm;59477;52.374;9.916;2023-05-07T02:24:41;42.17;35.43;55.75;;
71628;Laerm;59477;52.374;9.916;2023-05-07T02:26:42;41.79;36.11;61.09;;
71628;Laerm;59477;52.374;9.916;2023-05-07T02:29:01;46.14;38.57;59.33;;
71628;Laerm;59477;52.374;9.916;2023-05-07T02:31:04;51.69;39.55;62.27;;
71628;Laerm;59477;52.374;9.916;2023-05-07T02:33:05;45.63;38.10;58.57;;
71628;Laerm;59477;52.374;9.916;2023-05-07T02:35:07;42.41;37.03;60.19;;
71628;Laerm;59477;52.374;9.916;2023-05-07T02:37:26;49.97;34.98;68.22;;
71628;Laerm;59477;52.374;9.916;2023-05-07T02:39:27;55.83;34.25;71.36;;
71628;Laerm;59477;52.374;9.916;2023-05-07T02:41:28;56.75;35.31;72.59;;
71628;Laerm;59477;52.374;9.916;2023-05-07T02:43:47;52.02;35.02;70.97;;
71628;Laerm;59477;52.374;9.916;2023-05-07T02:45:47;48.47;34.71;64.65;;
71628;Laerm;59477;52.374;9.916;2023-05-07T02:48:06;46.75;37.82;61.64;;
71628;Laerm;59477;52.374;9.916;2023-05-07T02:50:07;49.09;39.16;64.24;;
71628;Laerm;59477;52.374;9.916;2023-05-07T02:52:07;47.78;38.43;62.82;;
71628;Laerm;59477;52.374;9.916;2023-05-07T02:54:08;56.77;40.64;70.37;;
71628;Laerm;59477;52.374;9.916;2023-05-07T02:56:09;53.09;41.10;71.60;;
71628;Laerm;59477;52.374;9.916;2023-05-07T02:58:09;52.99;38.75;71.83;;
71628;Laerm;59477;52.374;9.916;2023-05-07T03:00:13;55.49;37.08;70.74;;
71628;Laerm;59477;52.374;9.916;2023-05-07T03:02:14;48.85;38.31;67.92;;
71628;Laerm;59477;52.374;9.916;2023-05-07T03:04:15;57.65;37.30;77.38;;
71628;Laerm;59477;52.374;9.916;2023-05-07T03:06:16;50.27;35.91;69.44;;
71628;Laerm;59477;52.374;9.916;2023-05-07T03:08:16;51.15;37.52;70.32;;
71628;Laerm;59477;52.374;9.916;2023-05-07T03:10:36;45.21;36.49;65.06;;
71628;Laerm;59477;52.374;9.916;2023-05-07T03:12:37;53.37;36.36;71.32;;
71628;Laerm;59477;52.374;9.916;2023-05-07T03:14:37;56.92;35.68;70.00;;
71628;Laerm;59477;52.374;9.916;2023-05-07T03:16:38;54.83;35.42;74.70;;
71628;Laerm;59477;52.374;9.916;2023-05-07T03:18:38;47.27;35.35;62.72;;
71628;Laerm;59477;52.374;9.916;2023-05-07T03:20:39;45.03;35.24;57.05;;
71628;Laerm;59477;52.374;9.916;2023-05-07T03:22:40;51.01;35.62;67.86;;
71628;Laerm;59477;52.374;9.916;2023-05-07T03:24:40;55.60;37.40;70.15;;
71628;Laerm;59477;52.374;9.916;2023-05-07T03:26:41;49.13;38.21;61.02;;
71628;Laerm;59477;52.374;9.916;2023-05-07T03:28:42;44.67;35.00;62.01;;
71628;Laerm;59477;52.374;9.916;2023-05-07T03:30:43;47.38;37.74;67.99;;
71628;Laerm;59477;52.374;9.916;2023-05-07T03:33:02;59.38;36.69;78.09;;
71628;Laerm;59477;52.374;9.916;2023-05-07T03:35:03;52.26;39.91;70.99;;
71628;Laerm;59477;52.374;9.916;2023-05-07T03:37:03;50.86;38.82;72.54;;
71628;Laerm;59477;52.374;9.916;2023-05-07T03:39:22;43.25;37.12;56.62;;
71628;Laerm;59477;52.374;9.916;2023-05-07T03:41:41;50.43;40.04;73.34;;
71628;Laerm;59477;52.374;9.916;2023-05-07T03:43:42;44.41;37.61;53.72;;
71628;Laerm;59477;52.374;9.916;2023-05-07T03:45:42;43.26;37.11;55.13;;
71628;Laerm;59477;52.374;9.916;2023-05-07T03:48:01;45.78;36.13;56.09;;
71628;Laerm;59477;52.374;9.916;2023-05-07T03:50:06;45.90;37.95;64.90;;
71628;Laerm;59477;52.374;9.916;2023-05-07T03:52:07;44.23;36.94;63.97;;
71628;Laerm;59477;52.374;9.916;2023-05-07T03:54:26;51.06;37.93;63.19;;
71628;Laerm;59477;52.374;9.916;2023-05-07T03:56:27;51.78;41.69;71.80;;
71628;Laerm;59477;52.374;9.916;2023-05-07T03:58:47;53.73;40.07;70.20;;
71628;Laerm;59477;52.374;9.916;2023-05-07T04:00:47;51.24;39.58;75.39;;
71628;Laerm;59477;52.374;9.916;2023-05-07T04:03:07;46.66;40.28;60.55;;
71628;Laerm;59477;52.374;9.916;2023-05-07T04:05:07;46.31;38.35;66.54;;
71628;Laerm;59477;52.374;9.916;2023-05-07T04:07:08;50.82;36.45;63.54;;
71628;Laerm;59477;52.374;9.916;2023-05-07T04:09:08;45.04;35.96;56.57;;
71628;Laerm;59477;52.374;9.916;2023-05-07T04:11:09;46.24;37.33;68.34;;
71628;Laerm;59477;52.374;9.916;2023-05-07T04:13:10;47.45;39.93;64.73;;
71628;Laerm;59477;52.374;9.916;2023-05-07T04:15:10;41.05;36.57;52.98;;
71628;Laerm;59477;52.374;9.916;2023-05-07T04:17:11;47.57;36.01;55.80;;
71628;Laerm;59477;52.374;9.916;2023-05-07T04:19:11;43.19;36.69;59.19;;
71628;Laerm;59477;52.374;9.916;2023-05-07T04:21:30;41.37;36.20;53.63;;
71628;Laerm;59477;52.374;9.916;2023-05-07T04:23:31;40.58;35.77;52.08;;
71628;Laerm;59477;52.374;9.916;2023-05-07T04:25:31;45.24;35.20;64.01;;
71628;Laerm;59477;52.374;9.916;2023-05-07T04:27:32;45.46;35.86;65.60;;
71628;Laerm;59477;52.374;9.916;2023-05-07T04:29:32;52.57;38.04;67.43;;
71628;Laerm;59477;52.374;9.916;2023-05-07T04:31:33;43.76;37.92;57.89;;
71628;Laerm;59477;52.374;9.916;2023-05-07T04:33:34;43.00;34.52;58.55;;
71628;Laerm;59477;52.374;9.916;2023-05-07T04:35:35;40.51;35.59;59.95;;
71628;Laerm;59477;52.374;9.916;2023-05-07T04:37:35;40.17;34.68;53.72;;
71628;Laerm;59477;52.374;9.916;2023-05-07T04:39:36;41.96;35.78;53.06;;
71628;Laerm;59477;52.374;9.916;2023-05-07T04:41:48;49.59;38.53;65.70;;
71628;Laerm;59477;52.374;9.916;2023-05-07T04:43:49;49.71;38.87;70.53;;
71628;Laerm;59477;52.374;9.916;2023-05-07T04:46:08;56.97;39.47;74.34;;
71628;Laerm;59477;52.374;9.916;2023-05-07T04:48:27;51.89;36.50;71.58;;
71628;Laerm;59477;52.374;9.916;2023-05-07T04:50:28;50.60;37.88;60.96;;
71628;Laerm;59477;52.374;9.916;2023-05-07T04:52:29;44.41;36.35;66.84;;
71628;Laerm;59477;52.374;9.916;2023-05-07T04:54:30;51.14;38.60;67.07;;
71628;Laerm;59477;52.374;9.916;2023-05-07T04:56:30;44.58;37.71;60.86;;
71628;Laerm;59477;52.374;9.916;2023-05-07T04:58:33;45.46;37.20;66.57;;
71628;Laerm;59477;52.374;9.916;2023-05-07T05:00:33;46.21;36.99;61.67;;
71628;Laerm;59477;52.374;9.916;2023-05-07T05:02:52;46.50;36.79;65.54;;
71628;Laerm;59477;52.374;9.916;2023-05-07T05:04:52;54.96;38.65;80.92;;
71628;Laerm;59477;52.374;9.916;2023-05-07T05:06:53;54.43;41.12;74.51;;
71628;Laerm;59477;52.374;9.916;2023-05-07T05:08:53;48.89;39.77;63.03;;
71628;Laerm;59477;52.374;9.916;2023-05-07T05:11:12;50.84;40.58;70.65;;
71628;Laerm;59477;52.374;9.916;2023-05-07T05:13:13;51.73;43.14;70.87;;
71628;Laerm;59477;52.374;9.916;2023-05-07T05:15:14;52.62;41.93;71.56;;
71628;Laerm;59477;52.374;9.916;2023-05-07T05:17:33;49.25;39.34;68.63;;
71628;Laerm;59477;52.374;9.916;2023-05-07T05:19:56;50.09;40.08;69.62;;
71628;Laerm;59477;52.374;9.916;2023-05-07T05:21:57;47.40;39.04;66.80;;
71628;Laerm;59477;52.374;9.916;2023-05-07T05:23:58;46.97;40.96;58.28;;
71628;Laerm;59477;52.374;9.916;2023-05-07T05:25:58;50.97;40.15;68.59;;
71628;Laerm;59477;52.374;9.916;2023-05-07T05:27:59;53.88;41.17;73.33;;
71628;Laerm;59477;52.374;9.916;2023-05-07T05:29:59;53.94;41.27;75.83;;
71628;Laerm;59477;52.374;9.916;2023-05-07T05:32:00;46.89;39.17;63.56;;
71628;Laerm;59477;52.374;9.916;2023-05-07T05:34:19;47.03;40.79;62.89;;
71628;Laerm;59477;52.374;9.916;2023-05-07T05:36:20;50.93;42.34;68.05;;
71628;Laerm;59477;52.374;9.916;2023-05-07T05:38:20;48.31;39.72;62.02;;
71628;Laerm;59477;52.374;9.916;2023-05-07T05:40:21;53.34;40.61;72.59;;
71628;Laerm;59477;52.374;9.916;2023-05-07T05:42:40;53.53;39.85;78.11;;
71628;Laerm;59477;52.374;9.916;2023-05-07T05:44:59;51.92;41.24;65.75;;
71628;Laerm;59477;52.374;9.916;2023-05-07T05:46:59;50.05;42.14;69.26;;
71628;Laerm;59477;52.374;9.916;2023-05-07T05:49:00;52.23;41.07;69.88;;
71628;Laerm;59477;52.374;9.916;2023-05-07T05:51:00;47.39;40.83;55.25;;
71628;Laerm;59477;52.374;9.916;2023-05-07T05:53:01;46.30;40.12;57.38;;
71628;Laerm;59477;52.374;9.916;2023-05-07T05:55:02;48.37;40.26;57.66;;
71628;Laerm;59477;52.374;9.916;2023-05-07T05:57:02;52.26;41.22;73.78;;
71628;Laerm;59477;52.374;9.916;2023-05-07T05:59:04;47.90;39.25;59.24;;
71628;Laerm;59477;52.374;9.916;2023-05-07T06:01:05;46.44;38.87;56.34;;
71628;Laerm;59477;52.374;9.916;2023-05-07T06:03:05;53.91;41.21;69.69;;
71628;Laerm;59477;52.374;9.916;2023-05-07T06:05:07;53.74;42.58;66.71;;
71628;Laerm;59477;52.374;9.916;2023-05-07T06:07:26;55.24;41.16;81.67;;
71628;Laerm;59477;52.374;9.916;2023-05-07T06:09:26;52.61;39.16;71.29;;
71628;Laerm;59477;52.374;9.916;2023-05-07T06:11:27;47.92;37.97;66.15;;
71628;Laerm;59477;52.374;9.916;2023-05-07T06:13:27;49.79;40.63;68.97;;
71628;Laerm;59477;52.374;9.916;2023-05-07T06:15:28;55.71;43.93;76.14;;
71628;Laerm;59477;52.374;9.916;2023-05-07T06:17:28;58.09;43.51;79.46;;
71628;Laerm;59477;52.374;9.916;2023-05-07T06:19:29;59.07;44.80;79.88;;
71628;Laerm;59477;52.374;9.916;2023-05-07T06:21:30;54.40;42.04;77.15;;
71628;Laerm;59477;52.374;9.916;2023-05-07T06:23:31;47.12;40.76;63.95;;
71628;Laerm;59477;52.374;9.916;2023-05-07T06:25:31;49.21;39.57;69.99;;
71628;Laerm;59477;52.374;9.916;2023-05-07T06:27:32;48.48;39.24;65.90;;
71628;Laerm;59477;52.374;9.916;2023-05-07T06:29:33;50.16;36.52;70.73;;
71628;Laerm;59477;52.374;9.916;2023-05-07T06:31:34;46.63;37.75;72.26;;
71628;Laerm;59477;52.374;9.916;2023-05-07T06:33:34;49.97;41.02;66.71;;
71628;Laerm;59477;52.374;9.916;2023-05-07T06:35:35;56.62;43.35;77.71;;
71628;Laerm;59477;52.374;9.916;2023-05-07T06:37:38;46.21;38.45;64.16;;
71628;Laerm;59477;52.374;9.916;2023-05-07T06:39:58;51.84;41.56;69.54;;
71628;Laerm;59477;52.374;9.916;2023-05-07T06:41:59;50.92;42.76;69.82;;
71628;Laerm;59477;52.374;9.916;2023-05-07T06:44:00;52.19;41.40;71.71;;
71628;Laerm;59477;52.374;9.916;2023-05-07T06:46:19;55.35;43.19;71.37;;
71628;Laerm;59477;52.374;9.916;2023-05-07T06:48:19;53.43;43.88;68.03;;
71628;Laerm;59477;52.374;9.916;2023-05-07T06:50:20;59.48;48.31;77.87;;
71628;Laerm;59477;52.374;9.916;2023-05-07T06:52:21;53.45;44.78;66.00;;
71628;Laerm;59477;52.374;9.916;2023-05-07T06:54:22;54.08;43.49;72.74;;
71628;Laerm;59477;52.374;9.916;2023-05-07T06:56:22;56.00;43.98;70.93;;
71628;Laerm;59477;52.374;9.916;2023-05-07T06:58:41;59.27;47.27;83.20;;
71628;Laerm;59477;52.374;9.916;2023-05-07T07:00:42;53.65;43.26;80.76;;
71628;Laerm;59477;52.374;9.916;2023-05-07T07:02:43;62.18;41.62;73.37;;
71628;Laerm;59477;52.374;9.916;2023-05-07T07:04:44;64.49;39.26;75.97;;
71628;Laerm;59477;52.374;9.916;2023-05-07T07:07:03;46.60;39.25;64.93;;
71628;Laerm;59477;52.374;9.916;2023-05-07T07:09:22;52.76;41.72;73.69;;
71628;Laerm;59477;52.374;9.916;2023-05-07T07:11:41;51.30;40.15;65.24;;
71628;Laerm;59477;52.374;9.916;2023-05-07T07:14:00;50.71;41.23;74.46;;
71628;Laerm;59477;52.374;9.916;2023-05-07T07:16:01;52.07;39.60;69.31;;
71628;Laerm;59477;52.374;9.916;2023-05-07T07:18:01;49.78;42.89;66.38;;
71628;Laerm;59477;52.374;9.916;2023-05-07T07:20:02;56.42;42.64;82.97;;
71628;Laerm;59477;52.374;9.916;2023-05-07T07:22:03;51.88;42.85;67.02;;
71628;Laerm;59477;52.374;9.916;2023-05-07T07:24:04;49.26;40.10;63.66;;
71628;Laerm;59477;52.374;9.916;2023-05-07T07:26:04;48.11;38.99;57.79;;
71628;Laerm;59477;52.374;9.916;2023-05-07T07:28:25;45.74;39.32;59.21;;
71628;Laerm;59477;52.374;9.916;2023-05-07T07:30:26;49.75;41.31;70.09;;
71628;Laerm;59477;52.374;9.916;2023-05-07T07:32:27;55.51;44.31;73.21;;
71628;Laerm;59477;52.374;9.916;2023-05-07T07:34:27;58.01;42.81;80.97;;
71628;Laerm;59477;52.374;9.916;2023-05-07T07:36:28;58.09;41.87;84.17;;
71628;Laerm;59477;52.374;9.916;2023-05-07T07:38:28;46.34;40.96;60.85;;
71628;Laerm;59477;52.374;9.916;2023-05-07T07:40:29;51.76;44.83;72.25;;
71628;Laerm;59477;52.374;9.916;2023-05-07T07:42:30;53.85;42.15;75.93;;
71628;Laerm;59477;52.374;9.916;2023-05-07T07:44:49;46.94;41.67;68.13;;
71628;Laerm;59477;52.374;9.916;2023-05-07T07:46:49;49.13;42.73;61.33;;
71628;Laerm;59477;52.374;9.916;2023-05-07T07:48:51;50.68;41.19;67.32;;
71628;Laerm;59477;52.374;9.916;2023-05-07T07:50:52;55.52;43.99;70.59;;
71628;Laerm;59477;52.374;9.916;2023-05-07T07:52:53;50.34;44.36;63.85;;
71628;Laerm;59477;52.374;9.916;2023-05-07T07:54:54;52.18;43.53;74.25;;
71628;Laerm;59477;52.374;9.916;2023-05-07T07:56:54;50.59;40.89;67.50;;
71628;Laerm;59477;52.374;9.916;2023-05-07T07:59:13;49.98;42.44;66.56;;
71628;Laerm;59477;52.374;9.916;2023-05-07T08:01:36;51.88;43.20;71.07;;
71628;Laerm;59477;52.374;9.916;2023-05-07T08:03:37;54.44;45.81;73.50;;
71628;Laerm;59477;52.374;9.916;2023-05-07T08:05:38;52.07;43.15;74.67;;
71628;Laerm;59477;52.374;9.916;2023-05-07T08:07:39;52.26;43.99;69.46;;
71628;Laerm;59477;52.374;9.916;2023-05-07T08:09:58;56.42;42.06;80.46;;
71628;Laerm;59477;52.374;9.916;2023-05-07T08:12:18;53.46;44.78;66.24;;
71628;Laerm;59477;52.374;9.916;2023-05-07T08:14:37;55.39;46.20;73.16;;
71628;Laerm;59477;52.374;9.916;2023-05-07T08:16:37;57.62;46.29;69.15;;
71628;Laerm;59477;52.374;9.916;2023-05-07T08:18:38;53.62;43.97;74.60;;
71628;Laerm;59477;52.374;9.916;2023-05-07T08:20:38;51.88;41.12;72.95;;
71628;Laerm;59477;52.374;9.916;2023-05-07T08:22:39;50.82;40.18;71.94;;
71628;Laerm;59477;52.374;9.916;2023-05-07T08:24:40;49.89;40.32;70.61;;
71628;Laerm;59477;52.374;9.916;2023-05-07T08:26:41;50.63;42.49;65.72;;
71628;Laerm;59477;52.374;9.916;2023-05-07T08:28:41;51.43;41.07;69.47;;
71628;Laerm;59477;52.374;9.916;2023-05-07T08:30:42;51.46;41.07;71.47;;
71628;Laerm;59477;52.374;9.916;2023-05-07T08:32:42;53.95;41.86;76.84;;
71628;Laerm;59477;52.374;9.916;2023-05-07T08:34:45;48.70;41.95;66.92;;
71628;Laerm;59477;52.374;9.916;2023-05-07T08:36:46;48.74;41.87;68.45;;
71628;Laerm;59477;52.374;9.916;2023-05-07T08:38:48;48.36;41.44;66.65;;
71628;Laerm;59477;52.374;9.916;2023-05-07T08:40:49;52.77;41.96;72.76;;
71628;Laerm;59477;52.374;9.916;2023-05-07T08:42:50;51.44;44.72;61.95;;
71628;Laerm;59477;52.374;9.916;2023-05-07T08:44:52;52.27;43.35;68.83;;
71628;Laerm;59477;52.374;9.916;2023-05-07T08:47:14;51.37;43.13;72.64;;
71628;Laerm;59477;52.374;9.916;2023-05-07T08:49:34;55.65;43.55;72.17;;
71628;Laerm;59477;52.374;9.916;2023-05-07T08:51:35;54.62;44.53;74.28;;
71628;Laerm;59477;52.374;9.916;2023-05-07T08:53:36;53.86;44.47;71.21;;
71628;Laerm;59477;52.374;9.916;2023-05-07T08:55:36;54.32;44.08;71.40;;
71628;Laerm;59477;52.374;9.916;2023-05-07T08:57:37;48.36;40.47;60.30;;
71628;Laerm;59477;52.374;9.916;2023-05-07T08:59:38;47.07;40.83;59.17;;
71628;Laerm;59477;52.374;9.916;2023-05-07T09:01:38;54.73;43.41;77.90;;
71628;Laerm;59477;52.374;9.916;2023-05-07T09:03:57;51.77;43.99;70.92;;
71628;Laerm;59477;52.374;9.916;2023-05-07T09:06:16;64.60;42.27;94.58;;
71628;Laerm;59477;52.374;9.916;2023-05-07T09:08:17;51.87;41.96;69.00;;
71628;Laerm;59477;52.374;9.916;2023-05-07T09:10:18;53.43;40.69;66.71;;
71628;Laerm;59477;52.374;9.916;2023-05-07T09:12:37;57.32;46.40;78.31;;
71628;Laerm;59477;52.374;9.916;2023-05-07T09:14:56;56.64;42.47;77.76;;
71628;Laerm;59477;52.374;9.916;2023-05-07T09:16:57;53.80;42.59;70.81;;
71628;Laerm;59477;52.374;9.916;2023-05-07T09:19:00;57.20;43.99;70.89;;
71628;Laerm;59477;52.374;9.916;2023-05-07T09:21:19;56.52;45.79;72.68;;
71628;Laerm;59477;52.374;9.916;2023-05-07T09:23:21;56.13;48.10;67.00;;
71628;Laerm;59477;52.374;9.916;2023-05-07T09:25:31;49.66;42.32;62.19;;
71628;Laerm;59477;52.374;9.916;2023-05-07T09:27:32;50.03;43.30;64.45;;
71628;Laerm;59477;52.374;9.916;2023-05-07T09:29:51;55.81;47.16;69.68;;
71628;Laerm;59477;52.374;9.916;2023-05-07T09:31:52;51.89;43.46;67.38;;
71628;Laerm;59477;52.374;9.916;2023-05-07T09:33:52;52.32;43.91;63.13;;
71628;Laerm;59477;52.374;9.916;2023-05-07T09:35:53;50.38;44.06;59.62;;
71628;Laerm;59477;52.374;9.916;2023-05-07T09:37:57;58.01;44.72;79.83;;
71628;Laerm;59477;52.374;9.916;2023-05-07T09:40:22;53.63;44.40;75.33;;
71628;Laerm;59477;52.374;9.916;2023-05-07T09:42:26;52.62;44.11;71.23;;
71628;Laerm;59477;52.374;9.916;2023-05-07T09:44:27;50.83;43.02;71.12;;
71628;Laerm;59477;52.374;9.916;2023-05-07T09:46:29;51.90;45.21;68.70;;
71628;Laerm;59477;52.374;9.916;2023-05-07T09:48:30;51.43;45.16;65.56;;
71628;Laerm;59477;52.374;9.916;2023-05-07T09:50:34;56.90;45.28;67.32;;
71628;Laerm;59477;52.374;9.916;2023-05-07T09:52:36;56.48;49.05;70.42;;
71628;Laerm;59477;52.374;9.916;2023-05-07T09:54:37;51.03;44.01;64.73;;
71628;Laerm;59477;52.374;9.916;2023-05-07T09:56:43;53.56;46.85;64.04;;
71628;Laerm;59477;52.374;9.916;2023-05-07T09:58:44;51.86;44.25;67.76;;
71628;Laerm;59477;52.374;9.916;2023-05-07T10:00:49;53.96;45.17;73.85;;
71628;Laerm;59477;52.374;9.916;2023-05-07T10:02:51;48.41;41.44;60.81;;
71628;Laerm;59477;52.374;9.916;2023-05-07T10:04:52;50.32;43.56;62.40;;
71628;Laerm;59477;52.374;9.916;2023-05-07T10:06:53;50.56;42.03;71.25;;
71628;Laerm;59477;52.374;9.916;2023-05-07T10:08:54;54.45;45.17;68.81;;
71628;Laerm;59477;52.374;9.916;2023-05-07T10:10:55;50.45;43.96;67.27;;
71628;Laerm;59477;52.374;9.916;2023-05-07T10:12:58;52.39;44.55;71.68;;
71628;Laerm;59477;52.374;9.916;2023-05-07T10:14:59;49.85;43.46;63.88;;
71628;Laerm;59477;52.374;9.916;2023-05-07T10:16:59;50.40;42.67;68.29;;
71628;Laerm;59477;52.374;9.916;2023-05-07T10:19:00;49.35;42.29;60.58;;
71628;Laerm;59477;52.374;9.916;2023-05-07T10:21:05;50.10;43.21;62.54;;
71628;Laerm;59477;52.374;9.916;2023-05-07T10:23:07;53.82;43.18;70.75;;
71628;Laerm;59477;52.374;9.916;2023-05-07T10:25:30;51.17;42.90;71.13;;
71628;Laerm;59477;52.374;9.916;2023-05-07T10:27:31;52.27;43.46;68.29;;
71628;Laerm;59477;52.374;9.916;2023-05-07T10:32:30;56.25;42.86;74.68;;
71628;Laerm;59477;52.374;9.916;2023-05-07T10:34:35;57.08;45.05;75.55;;
71628;Laerm;59477;52.374;9.916;2023-05-07T10:36:36;58.65;46.00;82.57;;
71628;Laerm;59477;52.374;9.916;2023-05-07T10:38:37;59.41;45.72;90.14;;
71628;Laerm;59477;52.374;9.916;2023-05-07T10:40:38;56.18;44.80;79.16;;
71628;Laerm;59477;52.374;9.916;2023-05-07T10:42:52;55.90;45.72;75.69;;
71628;Laerm;59477;52.374;9.916;2023-05-07T10:44:53;55.54;45.11;75.94;;
71628;Laerm;59477;52.374;9.916;2023-05-07T10:47:15;56.89;42.90;73.21;;
71628;Laerm;59477;52.374;9.916;2023-05-07T10:49:14;54.01;45.47;71.42;;
71628;Laerm;59477;52.374;9.916;2023-05-07T10:51:20;55.45;42.13;71.90;;
71628;Laerm;59477;52.374;9.916;2023-05-07T10:53:21;53.18;43.47;70.07;;
71628;Laerm;59477;52.374;9.916;2023-05-07T10:55:24;52.47;42.97;71.36;;
71628;Laerm;59477;52.374;9.916;2023-05-07T10:57:43;56.40;44.12;82.43;;
71628;Laerm;59477;52.374;9.916;2023-05-07T11:00:03;54.08;42.43;77.76;;
71628;Laerm;59477;52.374;9.916;2023-05-07T11:02:04;55.52;44.10;78.06;;
71628;Laerm;59477;52.374;9.916;2023-05-07T11:04:13;54.60;44.24;75.58;;
71628;Laerm;59477;52.374;9.916;2023-05-07T11:06:15;53.26;44.96;73.45;;
71628;Laerm;59477;52.374;9.916;2023-05-07T11:08:15;55.06;44.88;76.53;;
71628;Laerm;59477;52.374;9.916;2023-05-07T11:10:16;54.23;43.33;70.01;;
71628;Laerm;59477;52.374;9.916;2023-05-07T11:16:42;52.90;43.43;71.08;;
71628;Laerm;59477;52.374;9.916;2023-05-07T11:19:01;50.22;42.75;68.07;;
71628;Laerm;59477;52.374;9.916;2023-05-07T11:21:02;52.96;43.37;70.39;;
71628;Laerm;59477;52.374;9.916;2023-05-07T11:25:33;55.90;46.81;76.47;;
71628;Laerm;59477;52.374;9.916;2023-05-07T11:27:34;56.63;46.51;75.97;;
71628;Laerm;59477;52.374;9.916;2023-05-07T11:29:35;52.51;43.34;74.10;;
71628;Laerm;59477;52.374;9.916;2023-05-07T11:31:54;58.83;43.90;80.62;;
71628;Laerm;59477;52.374;9.916;2023-05-07T11:33:55;58.73;45.32;79.54;;
71628;Laerm;59477;52.374;9.916;2023-05-07T11:35:56;57.97;43.42;79.49;;
71628;Laerm;59477;52.374;9.916;2023-05-07T11:38:00;55.51;43.79;74.83;;
71628;Laerm;59477;52.374;9.916;2023-05-07T11:42:04;60.99;44.71;80.35;;
71628;Laerm;59477;52.374;9.916;2023-05-07T11:44:23;53.28;43.62;78.24;;
71628;Laerm;59477;52.374;9.916;2023-05-07T11:46:24;55.38;46.40;71.11;;
71628;Laerm;59477;52.374;9.916;2023-05-07T11:48:43;57.72;44.59;80.15;;
71628;Laerm;59477;52.374;9.916;2023-05-07T11:50:50;58.43;46.50;78.59;;